Terminal Aerodrome Forecast
Issued by NWS Louisville, KY

Home | Current Version | Previous Version | Text Only | Print | Product List | Glossary On
Versions: 1 2 3 4 5 6 7 8 9 10 11 12 13 14 15 16 17 18 19 20 21 22 23 24 25 26 27 28 29
000
FTUS43 KLMK 190520
TAFSDF
TAF
KSDF 190520Z 1906/2012 VRB04KT P6SM BKN150
     FM191700 11004KT P6SM VCSH OVC040
     FM191900 11006KT 4SM -SHRA OVC015
     FM192300 11006KT 2SM -RA BR OVC008
     FM200300 11004KT 2SM RA BR OVC005=

USA.gov is the U.S. government's official web portal to all federal, state and local government web resources and services.